Time;durP1;ratioP1;P1;durP2;ratioP2;P2;SDS_P1;SDS_P2;PMS_P1;PMS_P2;Temp;Humidity;BMP_temperature;BMP_pressure;BME280_temperature;BME280_humidity;BME280_pressure;Samples;Min_cycle;Max_cycle;Signal;HPM_P1;HPM_P2
2023/01/18 00:01:08;;;;;;;15.40;11.00;;;;;;;2.52;100.00;100422.02;105134;1256;61642;-59
2023/01/18 00:03:37;;;;;;;19.40;12.00;;;;;;;2.49;100.00;100416.98;105643;1256;76366;-59
2023/01/18 00:06:07;;;;;;;20.00;11.90;;;;;;;2.45;100.00;100423.30;105610;1259;69288;-60
2023/01/18 00:08:35;;;;;;;19.20;11.90;;;;;;;2.39;100.00;100437.78;105367;1261;75159;-60
2023/01/18 00:11:10;;;;;;;17.90;11.70;;;;;;;2.36;100.00;100443.34;105339;1256;60673;-59
2023/01/18 00:13:38;;;;;;;18.70;13.00;;;;;;;2.35;100.00;100446.90;105387;1254;61545;-59
2023/01/18 00:16:10;;;;;;;16.10;10.60;;;;;;;2.37;100.00;100449.79;105306;1257;75273;-59
2023/01/18 00:18:37;;;;;;;19.60;11.60;;;;;;;2.39;100.00;100454.61;105501;1259;68430;-59
2023/01/18 00:21:06;;;;;;;18.00;11.60;;;;;;;2.40;100.00;100463.08;105405;1259;75269;-58
2023/01/18 00:23:33;;;;;;;19.00;11.70;;;;;;;2.41;100.00;100457.91;105337;1255;60944;-59
2023/01/18 00:26:02;;;;;;;19.50;12.80;;;;;;;2.41;100.00;100452.90;105096;1257;62196;-60
2023/01/18 00:28:29;;;;;;;22.00;12.70;;;;;;;2.41;100.00;100450.35;105285;1257;76390;-59
2023/01/18 00:30:56;;;;;;;19.40;11.60;;;;;;;2.41;100.00;100451.76;105412;1256;68558;-59
2023/01/18 00:33:23;;;;;;;30.60;11.80;;;;;;;2.39;100.00;100454.45;105508;1254;75055;-59
2023/01/18 00:35:58;;;;;;;20.00;11.30;;;;;;;2.39;100.00;100448.79;105534;1259;60730;-59
2023/01/18 00:38:27;;;;;;;17.90;10.80;;;;;;;2.41;100.00;100447.95;105506;1257;62902;-58
2023/01/18 00:40:54;;;;;;;18.80;11.90;;;;;;;2.43;100.00;100445.23;105423;1259;76078;-58
2023/01/18 00:43:40;;;;;;;21.20;12.40;;;;;;;2.44;100.00;100450.40;105721;1254;69247;-60
2023/01/18 00:46:09;;;;;;;19.60;11.60;;;;;;;2.46;100.00;100445.11;105160;1256;74051;-60
2023/01/18 00:48:40;;;;;;;21.10;11.80;;;;;;;2.48;100.00;100428.87;105241;1257;62465;-61
2023/01/18 00:51:12;;;;;;;20.40;12.30;;;;;;;2.49;100.00;100439.23;105287;1254;62509;-61
2023/01/18 00:53:39;;;;;;;19.90;12.80;;;;;;;2.51;100.00;100435.65;105489;1254;76647;-59
2023/01/18 00:56:08;;;;;;;25.20;13.00;;;;;;;2.52;100.00;100437.45;105167;1258;70351;-58
2023/01/18 00:58:36;;;;;;;22.00;11.70;;;;;;;2.53;100.00;100433.56;105381;1254;75110;-58
2023/01/18 01:01:04;;;;;;;22.30;12.70;;;;;;;2.56;100.00;100439.70;105194;1256;63778;-58
2023/01/18 01:06:42;;;;;;;19.80;12.70;;;;;;;2.55;100.00;100440.30;105638;1256;61494;-59
2023/01/18 01:06:43;;;;;;;20.90;12.00;;;;;;;2.55;100.00;100449.71;105354;1254;75132;-59
2023/01/18 01:09:15;;;;;;;20.20;12.10;;;;;;;2.56;100.00;100452.21;105177;1259;70954;-58
2023/01/18 01:12:31;;;;;;;18.00;12.00;;;;;;;2.57;100.00;100452.29;105384;1254;75028;-58
2023/01/18 01:28:21;;;;;;;18.70;12.10;;;;;;;2.51;100.00;100453.14;105145;1263;63456;-58
2023/01/18 01:30:48;;;;;;;23.90;12.50;;;;;;;2.49;100.00;100457.41;105009;1257;62740;-58
2023/01/18 01:33:16;;;;;;;18.90;10.90;;;;;;;2.47;100.00;100458.58;105104;1259;75377;-60
2023/01/18 01:35:43;;;;;;;20.90;13.30;;;;;;;2.46;100.00;100461.06;104823;1257;68165;-58
2023/01/18 01:38:10;;;;;;;21.60;12.70;;;;;;;2.46;100.00;100461.58;105023;1257;75153;-58
2023/01/18 01:40:38;;;;;;;22.30;12.90;;;;;;;2.46;100.00;100456.42;104871;1262;60684;-58
2023/01/18 01:43:11;;;;;;;21.50;12.60;;;;;;;2.46;100.00;100457.31;105147;1262;61376;-59
2023/01/18 01:45:39;;;;;;;22.90;12.60;;;;;;;2.45;100.00;100457.06;105141;1259;76125;-58
2023/01/18 01:48:06;;;;;;;19.20;10.90;;;;;;;2.43;100.00;100454.60;105139;1256;69601;-58
2023/01/18 01:50:35;;;;;;;19.80;11.70;;;;;;;2.44;100.00;100451.84;104888;1257;75269;-58
2023/01/18 01:53:02;;;;;;;22.20;13.40;;;;;;;2.44;100.00;100447.21;105159;1260;60737;-60
2023/01/18 01:55:34;;;;;;;22.40;13.90;;;;;;;2.40;100.00;100445.78;104690;1256;62577;-59
2023/01/18 01:58:03;;;;;;;21.20;12.40;;;;;;;2.38;100.00;100448.05;105095;1256;75377;-58
2023/01/18 02:00:31;;;;;;;19.20;12.20;;;;;;;2.38;100.00;100438.07;105104;1256;69563;-59
2023/01/18 02:03:02;;;;;;;21.30;12.20;;;;;;;2.36;100.00;100433.61;105059;1254;75393;-64
2023/01/18 02:05:30;;;;;;;21.00;12.50;;;;;;;2.29;100.00;100432.27;104912;1254;60929;-60
2023/01/18 02:07:58;;;;;;;21.70;12.50;;;;;;;2.22;100.00;100438.17;105138;1254;62585;-60
2023/01/18 02:10:25;;;;;;;21.90;12.00;;;;;;;2.15;100.00;100442.52;105336;1256;75990;-59
2023/01/18 02:12:53;;;;;;;22.10;13.10;;;;;;;2.08;100.00;100451.61;105226;1254;68682;-60
2023/01/18 02:15:22;;;;;;;23.20;13.80;;;;;;;2.04;100.00;100456.60;105163;1256;73634;-60
2023/01/18 02:18:28;;;;;;;22.30;12.90;;;;;;;2.02;100.00;100460.73;105169;1259;64103;-59
2023/01/18 02:21:05;;;;;;;20.70;12.80;;;;;;;2.02;100.00;100450.27;105359;1255;61585;-60
2023/01/18 02:23:44;;;;;;;18.70;12.30;;;;;;;2.02;100.00;100445.26;105310;1255;76438;-61
2023/01/18 02:26:39;;;;;;;21.60;13.10;;;;;;;2.03;100.00;100438.02;105498;1259;69657;-60
2023/01/18 02:29:31;;;;;;;22.20;12.90;;;;;;;2.03;100.00;100433.23;105203;1257;75003;-61
2023/01/18 02:32:17;;;;;;;19.90;12.00;;;;;;;2.04;100.00;100431.38;109009;1254;63746;-61
2023/01/18 02:34:48;;;;;;;23.30;13.30;;;;;;;2.04;100.00;100445.29;109078;1254;61780;-60
2023/01/18 02:37:18;;;;;;;21.10;12.80;;;;;;;2.08;100.00;100455.20;109079;1254;74861;-60
2023/01/18 02:39:57;;;;;;;19.40;12.50;;;;;;;2.12;100.00;100449.27;109056;1254;67882;-60
2023/01/18 02:48:22;;;;;;;19.50;12.00;;;;;;;2.16;100.00;100450.13;108920;1254;62316;-62
2023/01/18 02:50:49;;;;;;;18.70;12.40;;;;;;;2.18;100.00;100455.47;108903;1254;74526;-61
2023/01/18 02:53:16;;;;;;;20.00;12.50;;;;;;;2.19;100.00;100455.73;109086;1254;68382;-60
2023/01/18 02:55:56;;;;;;;20.10;12.70;;;;;;;2.20;100.00;100455.33;109069;1254;73822;-60
2023/01/18 02:58:32;;;;;;;19.60;11.30;;;;;;;2.19;100.00;100445.42;108874;1255;63630;-60
2023/01/18 03:01:08;;;;;;;19.60;11.30;;;;;;;2.19;100.00;100443.20;108934;1259;61053;-59
2023/01/18 03:03:35;;;;;;;23.60;13.10;;;;;;;2.19;100.00;100446.27;108961;1254;76134;-59
2023/01/18 03:06:02;;;;;;;23.20;12.90;;;;;;;2.20;100.00;100446.41;109034;1254;69191;-59
2023/01/18 03:08:45;;;;;;;22.70;13.80;;;;;;;2.23;100.00;100445.16;108984;1254;73035;-61
2023/01/18 03:11:22;;;;;;;20.90;12.70;;;;;;;2.22;100.00;100444.52;109065;1254;63271;-60
2023/01/18 03:14:10;;;;;;;27.60;14.00;;;;;;;2.25;100.00;100451.87;108857;1254;62617;-60
2023/01/18 03:16:59;;;;;;;23.80;14.10;;;;;;;2.24;100.00;100457.73;109114;1254;75317;-59
2023/01/18 03:25:24;;;;;;;24.10;14.30;;;;;;;2.27;100.00;100457.48;108877;1256;62102;-61
2023/01/18 03:36:27;;;;;;;22.00;13.50;;;;;;;2.26;100.00;100461.83;108915;1255;73772;-60
2023/01/18 03:39:19;;;;;;;20.90;13.00;;;;;;;2.27;100.00;100465.73;108878;1256;62405;-59
2023/01/18 03:41:48;;;;;;;21.90;12.40;;;;;;;2.29;100.00;100468.52;108750;1256;59515;-59
2023/01/18 03:44:30;;;;;;;22.50;12.80;;;;;;;2.30;100.00;100472.67;108793;1256;76323;-60
2023/01/18 03:46:57;;;;;;;23.00;11.70;;;;;;;2.31;100.00;100472.42;108955;1258;67932;-59
2023/01/18 03:49:24;;;;;;;18.90;11.90;;;;;;;2.32;100.00;100472.54;108895;1254;74806;-59
2023/01/18 03:52:01;;;;;;;20.40;12.80;;;;;;;2.32;100.00;100475.75;108880;1254;61834;-60
2023/01/18 03:54:41;;;;;;;16.80;11.30;;;;;;;2.33;100.00;100474.67;108945;1254;61313;-61
2023/01/18 03:57:20;;;;;;;22.90;12.80;;;;;;;2.34;100.00;100472.39;108929;1254;76052;-59
2023/01/18 03:59:47;;;;;;;24.70;13.70;;;;;;;2.34;100.00;100477.35;109080;1254;68213;-59
2023/01/18 04:02:17;;;;;;;23.00;14.30;;;;;;;2.32;100.00;100480.58;108878;1254;74823;-61
2023/01/18 04:04:44;;;;;;;22.20;13.60;;;;;;;2.31;100.00;100472.09;109056;1254;61386;-59
2023/01/18 04:07:11;;;;;;;24.50;14.80;;;;;;;2.30;100.00;100470.93;109085;1254;60218;-59
2023/01/18 04:09:38;;;;;;;24.70;14.40;;;;;;;2.29;100.00;100476.53;109010;1254;75926;-59
2023/01/18 04:12:06;;;;;;;20.00;12.40;;;;;;;2.29;100.00;100486.52;109021;1254;68929;-61
2023/01/18 04:14:33;;;;;;;21.70;13.50;;;;;;;2.29;100.00;100496.77;109067;1254;75263;-60
2023/01/18 04:17:00;;;;;;;19.90;12.80;;;;;;;2.30;100.00;100498.20;109072;1254;63011;-59
2023/01/18 04:19:27;;;;;;;27.00;15.10;;;;;;;2.31;100.00;100497.28;109065;1254;62086;-61
2023/01/18 04:21:54;;;;;;;20.00;12.60;;;;;;;2.32;100.00;100490.58;109029;1254;76825;-60
2023/01/18 04:24:21;;;;;;;25.80;15.60;;;;;;;2.32;100.00;100487.15;109086;1254;69706;-60
2023/01/18 04:26:48;;;;;;;28.00;15.40;;;;;;;2.30;100.00;100485.35;109047;1254;75203;-58
2023/01/18 04:29:16;;;;;;;22.10;14.20;;;;;;;2.30;100.00;100486.59;109086;1254;60565;-59
2023/01/18 04:31:43;;;;;;;18.90;12.10;;;;;;;2.28;100.00;100492.73;109109;1254;61748;-60
2023/01/18 04:34:10;;;;;;;21.00;13.60;;;;;;;2.28;100.00;100497.52;109056;1254;76023;-60
2023/01/18 04:36:37;;;;;;;22.40;13.20;;;;;;;2.27;100.00;100497.10;109139;1254;69599;-59
2023/01/18 04:39:04;;;;;;;23.80;14.70;;;;;;;2.27;100.00;100497.80;109060;1254;73659;-59
2023/01/18 04:41:31;;;;;;;22.20;13.00;;;;;;;2.27;100.00;100489.90;109073;1254;60710;-60
2023/01/18 04:43:59;;;;;;;21.00;14.00;;;;;;;2.28;100.00;100491.89;109003;1254;62832;-60
2023/01/18 04:46:26;;;;;;;22.70;13.70;;;;;;;2.29;100.00;100499.39;109124;1254;75964;-59
2023/01/18 04:48:53;;;;;;;21.80;13.60;;;;;;;2.29;100.00;100500.91;109009;1254;68338;-59
2023/01/18 04:51:22;;;;;;;21.90;13.90;;;;;;;2.29;100.00;100517.50;109048;1254;74847;-59
2023/01/18 04:53:49;;;;;;;22.70;13.70;;;;;;;2.31;100.00;100518.95;109036;1254;61707;-60
2023/01/18 04:56:16;;;;;;;24.20;13.40;;;;;;;2.32;100.00;100520.73;109021;1254;61476;-60
2023/01/18 04:58:44;;;;;;;25.50;14.70;;;;;;;2.33;100.00;100512.42;109100;1254;75916;-59
2023/01/18 05:01:12;;;;;;;23.50;15.00;;;;;;;2.33;100.00;100523.20;109128;1254;68929;-59
2023/01/18 05:03:40;;;;;;;22.20;13.70;;;;;;;2.32;100.00;100533.55;109068;1254;74794;-59
2023/01/18 05:06:09;;;;;;;25.50;14.10;;;;;;;2.32;100.00;100539.79;109019;1255;60397;-60
2023/01/18 05:08:39;;;;;;;23.60;13.60;;;;;;;2.30;100.00;100542.66;109061;1254;62388;-59
2023/01/18 05:11:08;;;;;;;22.40;14.00;;;;;;;2.30;100.00;100544.50;109073;1254;76169;-59
2023/01/18 05:13:35;;;;;;;23.30;14.50;;;;;;;2.30;100.00;100539.73;109087;1254;68517;-59
2023/01/18 05:16:04;;;;;;;22.40;14.10;;;;;;;2.29;100.00;100537.11;109021;1256;74748;-60
2023/01/18 05:18:32;;;;;;;23.60;13.60;;;;;;;2.27;100.00;100534.67;109121;1254;63676;-59
2023/01/18 05:20:59;;;;;;;24.30;15.60;;;;;;;2.26;100.00;100540.56;109098;1254;62796;-59
2023/01/18 05:23:26;;;;;;;23.50;15.20;;;;;;;2.25;100.00;100537.60;109099;1254;76220;-59
2023/01/18 05:25:54;;;;;;;23.40;13.90;;;;;;;2.22;100.00;100541.73;109021;1254;69049;-59
2023/01/18 05:28:22;;;;;;;22.10;13.80;;;;;;;2.18;100.00;100540.86;109051;1254;73732;-59
2023/01/18 05:30:50;;;;;;;25.20;14.60;;;;;;;2.14;100.00;100546.45;109022;1254;61839;-59
2023/01/18 05:33:17;;;;;;;21.80;14.90;;;;;;;2.11;100.00;100552.73;109053;1254;62289;-60
2023/01/18 05:35:48;;;;;;;27.50;16.80;;;;;;;2.06;100.00;100553.48;109114;1254;75983;-60
2023/01/18 05:38:16;;;;;;;26.60;15.50;;;;;;;1.99;100.00;100548.72;109040;1255;69611;-61
2023/01/18 05:40:44;;;;;;;27.30;16.50;;;;;;;1.89;100.00;100546.54;109061;1254;74765;-62
2023/01/18 05:43:11;;;;;;;23.10;15.40;;;;;;;1.79;100.00;100560.75;109046;1254;62065;-63
2023/01/18 05:45:38;;;;;;;24.20;15.50;;;;;;;1.70;100.00;100555.09;109073;1256;62198;-63
2023/01/18 05:48:05;;;;;;;23.50;15.00;;;;;;;1.60;100.00;100555.80;108923;1256;75929;-63
2023/01/18 05:50:32;;;;;;;29.20;15.10;;;;;;;1.53;100.00;100560.81;109061;1257;68634;-63
2023/01/18 05:53:12;;;;;;;24.80;15.70;;;;;;;1.48;100.00;100564.64;109060;1254;74151;-63
2023/01/18 05:55:39;;;;;;;28.10;16.40;;;;;;;1.44;100.00;100564.77;109010;1256;62209;-64
2023/01/18 05:58:06;;;;;;;22.50;14.10;;;;;;;1.41;100.00;100565.70;108997;1255;61236;-63
2023/01/18 06:00:34;;;;;;;24.50;15.40;;;;;;;1.39;100.00;100561.57;109058;1257;76252;-63
2023/01/18 06:03:01;;;;;;;23.40;15.90;;;;;;;1.38;100.00;100561.30;109102;1254;69433;-62
2023/01/18 06:05:28;;;;;;;27.70;16.80;;;;;;;1.37;100.00;100564.84;108986;1256;73856;-64
2023/01/18 06:07:56;;;;;;;28.90;16.00;;;;;;;1.32;100.00;100563.44;108983;1256;61711;-64
2023/01/18 06:10:23;;;;;;;25.60;14.70;;;;;;;1.33;100.00;100568.16;109059;1254;62423;-63
2023/01/18 06:12:50;;;;;;;25.80;14.80;;;;;;;1.33;100.00;100567.52;109061;1254;76042;-63
2023/01/18 06:15:17;;;;;;;25.80;15.30;;;;;;;1.34;100.00;100578.70;109109;1254;68504;-63
2023/01/18 06:17:45;;;;;;;25.40;15.90;;;;;;;1.36;100.00;100583.02;108984;1256;73750;-64
2023/01/18 06:20:13;;;;;;;28.50;16.50;;;;;;;1.34;100.00;100573.58;109062;1256;63433;-63
2023/01/18 06:22:40;;;;;;;25.30;16.50;;;;;;;1.34;100.00;100573.25;109081;1255;61345;-63
2023/01/18 06:25:08;;;;;;;25.90;17.10;;;;;;;1.36;100.00;100567.77;108980;1255;74815;-62
2023/01/18 06:27:37;;;;;;;30.30;17.10;;;;;;;1.38;100.00;100567.13;108802;1256;68189;-64
2023/01/18 06:30:05;;;;;;;27.20;17.30;;;;;;;1.39;100.00;100564.09;108932;1260;74846;-63
2023/01/18 06:32:32;;;;;;;29.20;17.30;;;;;;;1.38;100.00;100576.67;108942;1256;62028;-62
2023/01/18 06:34:59;;;;;;;27.90;15.80;;;;;;;1.39;100.00;100573.05;108997;1257;61117;-63
2023/01/18 06:37:27;;;;;;;26.60;15.60;;;;;;;1.40;100.00;100574.34;108945;1256;75848;-63
2023/01/18 06:39:54;;;;;;;24.20;16.10;;;;;;;1.39;100.00;100571.11;108962;1255;67906;-62
2023/01/18 06:42:21;;;;;;;27.90;16.60;;;;;;;1.43;100.00;100569.14;108948;1255;75192;-61
2023/01/18 06:44:48;;;;;;;29.50;17.90;;;;;;;1.45;100.00;100577.03;108979;1255;60771;-61
2023/01/18 06:47:18;;;;;;;27.90;17.20;;;;;;;1.49;100.00;100576.04;108960;1255;61430;-61
2023/01/18 06:49:49;;;;;;;28.40;17.20;;;;;;;1.51;100.00;100582.20;108895;1256;74286;-62
2023/01/18 06:52:16;;;;;;;27.20;16.40;;;;;;;1.52;100.00;100578.02;108980;1256;69014;-61
2023/01/18 06:54:43;;;;;;;27.50;16.20;;;;;;;1.55;100.00;100574.73;108968;1256;74506;-62
2023/01/18 06:57:11;;;;;;;26.90;16.30;;;;;;;1.56;100.00;100572.41;108943;1255;61600;-61
2023/01/18 06:59:38;;;;;;;29.40;17.30;;;;;;;1.57;100.00;100567.55;108860;1256;62413;-63
2023/01/18 07:02:06;;;;;;;28.50;16.60;;;;;;;1.55;100.00;100569.27;108871;1256;75548;-61
2023/01/18 07:04:36;;;;;;;28.70;16.30;;;;;;;1.59;100.00;100572.02;108991;1255;67960;-61
2023/01/18 07:07:03;;;;;;;29.70;18.60;;;;;;;1.60;100.00;100573.63;108943;1257;75059;-61
2023/01/18 07:09:30;;;;;;;29.60;17.00;;;;;;;1.61;100.00;100577.03;108948;1256;63293;-63
2023/01/18 07:11:58;;;;;;;29.30;18.80;;;;;;;1.61;100.00;100580.77;108938;1258;61440;-61
2023/01/18 07:14:25;;;;;;;29.40;18.40;;;;;;;1.64;100.00;100578.10;109010;1255;74607;-61
2023/01/18 07:16:53;;;;;;;28.70;16.90;;;;;;;1.67;100.00;100582.34;109004;1257;69274;-60
2023/01/18 07:19:20;;;;;;;30.20;19.10;;;;;;;1.70;100.00;100570.33;108930;1256;75132;-62
2023/01/18 07:21:48;;;;;;;28.90;17.80;;;;;;;1.73;100.00;100574.72;108933;1256;62198;-61
2023/01/18 07:24:15;;;;;;;31.00;19.70;;;;;;;1.76;100.00;100583.57;109000;1256;62359;-61
2023/01/18 07:26:42;;;;;;;27.70;17.10;;;;;;;1.79;100.00;100589.55;109009;1256;75731;-61
2023/01/18 07:29:10;;;;;;;31.60;18.90;;;;;;;1.81;100.00;100584.70;109029;1255;69228;-62
2023/01/18 07:31:37;;;;;;;31.40;17.80;;;;;;;1.82;100.00;100577.13;108927;1256;73078;-62
2023/01/18 07:34:04;;;;;;;31.50;17.60;;;;;;;1.83;100.00;100572.05;108937;1256;63255;-61
2023/01/18 07:36:31;;;;;;;28.00;16.10;;;;;;;1.85;100.00;100568.34;108981;1256;61128;-60
2023/01/18 07:39:01;;;;;;;30.90;18.70;;;;;;;1.86;100.00;100566.17;109013;1256;74702;-60
2023/01/18 07:41:28;;;;;;;30.20;18.30;;;;;;;1.89;100.00;100568.34;108916;1257;67822;-62
2023/01/18 07:43:56;;;;;;;29.70;18.00;;;;;;;1.90;100.00;100574.91;108967;1256;74843;-60
2023/01/18 07:46:25;;;;;;;29.30;17.00;;;;;;;1.92;100.00;100569.83;108985;1256;63147;-60
2023/01/18 07:48:52;;;;;;;34.60;20.60;;;;;;;1.94;100.00;100570.17;109016;1261;62727;-59
2023/01/18 07:51:20;;;;;;;38.90;22.30;;;;;;;1.98;100.00;100574.68;108944;1255;74336;-61
2023/01/18 07:53:47;;;;;;;32.00;18.70;;;;;;;2.01;100.00;100582.47;108963;1256;69544;-60
2023/01/18 07:56:16;;;;;;;31.80;18.40;;;;;;;2.03;100.00;100585.45;108976;1256;74657;-60
2023/01/18 07:58:43;;;;;;;32.10;18.60;;;;;;;2.03;100.00;100586.05;108955;1256;60280;-59
2023/01/18 08:01:20;;;;;;;31.10;19.70;;;;;;;2.05;100.00;100586.30;108974;1255;62574;-60
2023/01/18 08:03:48;;;;;;;34.80;19.20;;;;;;;2.06;100.00;100591.20;109059;1256;75925;-59
2023/01/18 08:06:18;;;;;;;33.00;19.10;;;;;;;2.07;100.00;100590.20;109046;1254;69015;-59
2023/01/18 08:08:45;;;;;;;34.50;20.70;;;;;;;2.09;100.00;100580.98;108931;1254;73931;-60
2023/01/18 08:11:12;;;;;;;30.50;18.70;;;;;;;2.08;100.00;100579.84;109053;1254;60521;-61
2023/01/18 08:13:40;;;;;;;32.60;19.60;;;;;;;2.08;100.00;100584.98;108979;1255;60906;-59
2023/01/18 08:16:08;;;;;;;33.00;18.00;;;;;;;2.08;100.00;100580.70;108932;1254;75895;-61
2023/01/18 08:18:35;;;;;;;31.50;18.00;;;;;;;2.07;100.00;100576.50;109089;1254;68677;-59
2023/01/18 08:21:02;;;;;;;34.80;20.50;;;;;;;2.09;100.00;100591.13;108949;1255;74762;-60
2023/01/18 08:23:29;;;;;;;33.70;21.00;;;;;;;2.12;100.00;100597.08;108888;1256;60259;-60
2023/01/18 08:26:00;;;;;;;31.60;19.20;;;;;;;2.14;100.00;100592.63;109001;1256;62616;-60
2023/01/18 08:28:27;;;;;;;32.00;17.80;;;;;;;2.16;100.00;100584.08;108978;1254;74661;-60
2023/01/18 08:31:06;;;;;;;35.00;19.90;;;;;;;2.16;100.00;100582.30;108931;1259;69086;-61
2023/01/18 08:33:42;;;;;;;36.40;20.80;;;;;;;2.16;100.00;100567.73;108990;1254;73110;-60
2023/01/18 08:36:10;;;;;;;33.00;19.90;;;;;;;2.18;100.00;100554.04;109009;1254;63267;-60
2023/01/18 08:38:37;;;;;;;32.50;19.00;;;;;;;2.20;100.00;100559.73;108944;1256;61252;-60
2023/01/18 08:41:04;;;;;;;34.00;20.20;;;;;;;2.20;100.00;100559.73;108971;1256;75998;-62
2023/01/18 08:43:31;;;;;;;33.10;20.80;;;;;;;2.22;100.00;100559.08;108984;1256;69352;-59
2023/01/18 08:45:59;;;;;;;35.70;19.60;;;;;;;2.20;100.00;100564.55;108945;1256;73606;-59
2023/01/18 08:48:26;;;;;;;33.60;19.50;;;;;;;2.17;100.00;100569.04;108941;1255;63111;-64
2023/01/18 08:50:53;;;;;;;39.40;24.30;;;;;;;2.16;100.00;100559.73;109010;1257;61669;-60
2023/01/18 08:53:20;;;;;;;46.50;27.50;;;;;;;2.14;100.00;100559.17;109022;1254;74674;-60
2023/01/18 08:55:48;;;;;;;40.50;24.00;;;;;;;2.12;100.00;100561.03;109055;1254;69644;-59
2023/01/18 08:58:15;;;;;;;40.40;22.50;;;;;;;2.13;100.00;100569.16;108983;1254;74798;-60
2023/01/18 09:00:44;;;;;;;36.20;21.00;;;;;;;2.15;100.00;100570.58;108979;1254;63741;-59
2023/01/18 09:03:12;;;;;;;35.40;21.10;;;;;;;2.15;100.00;100558.36;109069;1254;61313;-59
2023/01/18 09:05:39;;;;;;;38.70;23.70;;;;;;;2.19;100.00;100554.18;109013;1257;74917;-59
2023/01/18 09:08:07;;;;;;;37.90;21.00;;;;;;;2.27;100.00;100549.96;108966;1256;69206;-61
2023/01/18 09:10:36;;;;;;;33.50;19.90;;;;;;;2.37;100.00;100553.60;108969;1255;75282;-59
2023/01/18 09:13:04;;;;;;;33.80;20.30;;;;;;;2.44;100.00;100552.16;108950;1261;60012;-59
2023/01/18 09:15:33;;;;;;;37.20;22.60;;;;;;;2.47;100.00;100556.55;108924;1255;61206;-60
2023/01/18 09:18:04;;;;;;;32.00;19.60;;;;;;;2.50;100.00;100549.41;108951;1257;75210;-60
2023/01/18 09:20:34;;;;;;;38.40;22.30;;;;;;;2.56;100.00;100544.01;109077;1254;68092;-59
2023/01/18 09:23:06;;;;;;;37.50;22.60;;;;;;;2.61;100.00;100546.70;109085;1254;74748;-59
2023/01/18 09:25:35;;;;;;;36.90;22.40;;;;;;;2.64;100.00;100546.20;108927;1256;60554;-60
2023/01/18 09:28:04;;;;;;;36.50;20.60;;;;;;;2.66;100.00;100550.73;109006;1255;61242;-60
2023/01/18 09:30:31;;;;;;;35.40;20.00;;;;;;;2.68;100.00;100552.79;109088;1254;75173;-60
2023/01/18 09:32:59;;;;;;;34.50;20.00;;;;;;;2.70;100.00;100554.88;108943;1257;68361;-59
2023/01/18 09:35:27;;;;;;;35.70;21.70;;;;;;;2.70;100.00;100555.03;108914;1256;74847;-61
2023/01/18 09:37:54;;;;;;;34.90;20.30;;;;;;;2.67;100.00;100549.08;108920;1256;63219;-59
2023/01/18 09:40:21;;;;;;;35.60;19.80;;;;;;;2.66;100.00;100543.84;108949;1257;60897;-59
2023/01/18 09:42:50;;;;;;;35.00;21.50;;;;;;;2.67;100.00;100553.19;108872;1255;74743;-59
2023/01/18 09:45:31;;;;;;;36.80;22.40;;;;;;;2.70;100.00;100546.45;108824;1256;68071;-60
2023/01/18 09:48:05;;;;;;;36.30;20.50;;;;;;;2.69;100.00;100541.42;108801;1254;74850;-59
2023/01/18 09:50:37;;;;;;;37.90;20.30;;;;;;;2.64;100.00;100545.91;109004;1254;62298;-59
2023/01/18 09:53:04;;;;;;;;;;;;;;;2.59;100.00;100549.38;108904;1254;63307;-60
2023/01/18 09:55:41;;;;;;;38.50;22.10;;;;;;;2.56;100.00;100550.18;109025;1259;75936;-60
2023/01/18 09:58:37;;;;;;;33.00;20.50;;;;;;;2.52;100.00;100553.05;109093;1254;69047;-60
2023/01/18 10:01:13;;;;;;;42.30;20.00;;;;;;;2.49;100.00;100554.02;108825;1259;74746;-62
2023/01/18 10:03:48;;;;;;;40.50;22.30;;;;;;;2.47;100.00;100565.34;108844;1256;61655;-59
2023/01/18 10:06:28;;;;;;;36.60;22.20;;;;;;;2.46;100.00;100551.83;108937;1257;62163;-59
2023/01/18 10:09:03;;;;;;;34.40;21.30;;;;;;;2.46;100.00;100545.98;108724;1262;75954;-59
2023/01/18 10:11:35;;;;;;;39.80;23.00;;;;;;;2.44;100.00;100543.22;108895;1257;68997;-59
2023/01/18 10:14:05;;;;;;;41.20;23.20;;;;;;;2.42;100.00;100551.26;108948;1257;75197;-59
2023/01/18 10:16:33;;;;;;;41.10;23.50;;;;;;;2.42;100.00;100556.09;108801;1256;60704;-60
2023/01/18 10:19:00;;;;;;;38.80;22.70;;;;;;;2.41;100.00;100551.70;108984;1260;61330;-59
2023/01/18 10:21:53;;;;;;;44.00;26.20;;;;;;;2.40;100.00;100556.57;108976;1256;76371;-59
2023/01/18 10:24:32;;;;;;;37.00;22.60;;;;;;;2.40;100.00;100554.51;108855;1262;68214;-60
2023/01/18 10:27:09;;;;;;;40.20;23.50;;;;;;;2.40;100.00;100554.02;108964;1257;74857;-59
2023/01/18 10:29:55;;;;;;;39.90;22.10;;;;;;;2.42;100.00;100543.56;108857;1256;61756;-64
2023/01/18 10:32:22;;;;;;;38.30;22.10;;;;;;;2.41;100.00;100537.77;108871;1256;61477;-60
2023/01/18 10:34:50;;;;;;;38.40;22.80;;;;;;;2.41;100.00;100535.25;108820;1256;76039;-59
2023/01/18 10:37:25;;;;;;;37.90;22.60;;;;;;;2.40;100.00;100538.71;109006;1256;68027;-60
2023/01/18 10:39:56;;;;;;;43.90;25.00;;;;;;;2.40;100.00;100538.10;108932;1257;74728;-59
2023/01/18 10:42:46;;;;;;;38.30;22.00;;;;;;;2.39;100.00;100536.06;108901;1259;63010;-60
2023/01/18 10:45:20;;;;;;;49.80;25.50;;;;;;;2.40;100.00;100534.82;108933;1257;61719;-60
2023/01/18 10:47:47;;;;;;;38.30;22.60;;;;;;;2.44;100.00;100532.79;108907;1257;76255;-59
2023/01/18 10:50:17;;;;;;;40.10;24.20;;;;;;;2.49;100.00;100533.07;109019;1257;69383;-59
2023/01/18 10:52:44;;;;;;;38.70;22.90;;;;;;;2.53;100.00;100534.79;108998;1257;75119;-59
2023/01/18 10:55:16;;;;;;;40.00;22.20;;;;;;;2.56;100.00;100532.69;108747;1255;61987;-60
2023/01/18 10:57:48;;;;;;;36.10;20.70;;;;;;;2.57;100.00;100531.02;109050;1254;62191;-59
2023/01/18 11:00:21;;;;;;;36.50;21.60;;;;;;;2.59;100.00;100527.59;108952;1257;76217;-59
2023/01/18 11:02:49;;;;;;;37.00;21.80;;;;;;;2.62;100.00;100522.59;108997;1254;69264;-60
2023/01/18 11:05:43;;;;;;;35.90;21.30;;;;;;;2.63;100.00;100516.29;108822;1257;74808;-59
2023/01/18 11:08:12;;;;;;;36.00;21.20;;;;;;;2.68;100.00;100520.89;108954;1256;63567;-59
2023/01/18 11:10:42;;;;;;;38.50;23.00;;;;;;;2.73;100.00;100518.11;108780;1255;61385;-60
2023/01/18 11:13:25;;;;;;;39.40;22.40;;;;;;;2.76;100.00;100516.79;108971;1256;74990;-59
2023/01/18 11:16:22;;;;;;;38.10;22.60;;;;;;;2.81;100.00;100517.27;108958;1256;68048;-58
2023/01/18 11:19:15;;;;;;;40.70;23.20;;;;;;;2.86;100.00;100521.61;108811;1257;73315;-59
2023/01/18 11:21:44;;;;;;;42.30;24.50;;;;;;;2.91;100.00;100526.52;108846;1254;60899;-58
2023/01/18 11:24:32;;;;;;;40.00;21.90;;;;;;;2.97;100.00;100529.83;108923;1260;61561;-58
2023/01/18 11:27:10;;;;;;;39.70;22.20;;;;;;;3.02;100.00;100531.80;109108;1254;75929;-60
2023/01/18 11:29:41;;;;;;;35.00;20.30;;;;;;;3.06;100.00;100536.77;108967;1254;69031;-58
2023/01/18 11:32:25;;;;;;;31.90;20.40;;;;;;;3.06;100.00;100534.75;109098;1254;75081;-59
2023/01/18 11:34:57;;;;;;;34.90;21.30;;;;;;;3.06;100.00;100530.58;108989;1254;63107;-59
2023/01/18 11:37:27;;;;;;;45.40;24.90;;;;;;;3.08;100.00;100526.86;108917;1254;60386;-58
2023/01/18 11:39:54;;;;;;;46.90;29.30;;;;;;;3.12;100.00;100525.68;109016;1254;76065;-59
2023/01/18 11:42:30;;;;;;;45.30;26.60;;;;;;;3.14;100.00;100518.80;109115;1254;68640;-60
2023/01/18 11:45:29;;;;;;;46.60;27.70;;;;;;;3.17;100.00;100519.17;109084;1254;74894;-58
2023/01/18 11:47:56;;;;;;;50.10;30.40;;;;;;;3.19;100.00;100518.02;108998;1254;63394;-60
2023/01/18 11:50:42;;;;;;;36.90;22.40;;;;;;;3.18;100.00;100520.38;108998;1254;62400;-58
2023/01/18 11:53:11;;;;;;;38.90;24.30;;;;;;;3.13;100.00;100528.13;109063;1254;75712;-59